<?xml version="1.0" encoding="UTF-8" standalone="yes"?>
<gpx xmlns="http://www.topografix.com/GPX/1/1" xmlns:xsi="http://www.w3.org/2001/XMLSchema-instance" version="1.1" creator="MagicMaps Tour Explorer" xsi:schemaLocation="http://www.topografix.com/GPX/1/1 http://www.topografix.com/GPX/1/1/gpx.xsd">
  <trk>
    <name>brunnenkopf-s</name>
    <trkseg>
      <trkpt lat="47.570033502" lon="10.953594446">
        <ele>956.2</ele>
        <time>2024-05-19T07:11:09Z</time>
      </trkpt>
      <trkpt lat="47.570332233" lon="10.953514567">
        <ele>959.0</ele>
        <time>2024-05-19T07:13:08Z</time>
      </trkpt>
      <trkpt lat="47.570466176" lon="10.953514651">
        <ele>960.5</ele>
        <time>2024-05-19T07:13:27Z</time>
      </trkpt>
      <trkpt lat="47.570487550" lon="10.953562092">
        <ele>961.0</ele>
        <time>2024-05-19T07:13:48Z</time>
      </trkpt>
      <trkpt lat="47.570476402" lon="10.953601319">
        <ele>961.0</ele>
        <time>2024-05-19T07:14:34Z</time>
      </trkpt>
      <trkpt lat="47.570558346" lon="10.953526074">
        <ele>952.0</ele>
        <time>2024-05-19T07:15:19Z</time>
      </trkpt>
      <trkpt lat="47.570781351" lon="10.953640741">
        <ele>956.8</ele>
        <time>2024-05-19T07:16:49Z</time>
      </trkpt>
      <trkpt lat="47.571050676" lon="10.953677354">
        <ele>960.3</ele>
        <time>2024-05-19T07:17:16Z</time>
      </trkpt>
      <trkpt lat="47.571536796" lon="10.953723360">
        <ele>970.6</ele>
        <time>2024-05-19T07:17:57Z</time>
      </trkpt>
      <trkpt lat="47.571847262" lon="10.953662088">
        <ele>973.5</ele>
        <time>2024-05-19T07:18:21Z</time>
      </trkpt>
      <trkpt lat="47.572053457" lon="10.953685893">
        <ele>975.9</ele>
        <time>2024-05-19T07:18:40Z</time>
      </trkpt>
      <trkpt lat="47.572081201" lon="10.953670889">
        <ele>976.8</ele>
        <time>2024-05-19T07:18:51Z</time>
      </trkpt>
      <trkpt lat="47.572235176" lon="10.953810699">
        <ele>979.2</ele>
        <time>2024-05-19T07:19:13Z</time>
      </trkpt>
      <trkpt lat="47.572416225" lon="10.954090152">
        <ele>985.0</ele>
        <time>2024-05-19T07:19:45Z</time>
      </trkpt>
      <trkpt lat="47.572574727" lon="10.954200122">
        <ele>987.4</ele>
        <time>2024-05-19T07:20:09Z</time>
      </trkpt>
      <trkpt lat="47.572885780" lon="10.954219485">
        <ele>992.2</ele>
        <time>2024-05-19T07:20:46Z</time>
      </trkpt>
      <trkpt lat="47.573048221" lon="10.954208840">
        <ele>995.6</ele>
        <time>2024-05-19T07:21:08Z</time>
      </trkpt>
      <trkpt lat="47.573194569" lon="10.954082608">
        <ele>997.5</ele>
        <time>2024-05-19T07:21:24Z</time>
      </trkpt>
      <trkpt lat="47.573338654" lon="10.953854620">
        <ele>999.9</ele>
        <time>2024-05-19T07:21:42Z</time>
      </trkpt>
      <trkpt lat="47.573433621" lon="10.953640211">
        <ele>1002.8</ele>
        <time>2024-05-19T07:22:02Z</time>
      </trkpt>
      <trkpt lat="47.573675774" lon="10.953222038">
        <ele>1009.5</ele>
        <time>2024-05-19T07:22:42Z</time>
      </trkpt>
      <trkpt lat="47.573779542" lon="10.953176357">
        <ele>1012.4</ele>
        <time>2024-05-19T07:23:00Z</time>
      </trkpt>
      <trkpt lat="47.573969057" lon="10.953210639">
        <ele>1015.8</ele>
        <time>2024-05-19T07:23:18Z</time>
      </trkpt>
      <trkpt lat="47.574355560" lon="10.953002483">
        <ele>1013.5</ele>
        <time>2024-05-19T07:24:11Z</time>
      </trkpt>
      <trkpt lat="47.574511377" lon="10.952835414">
        <ele>1018.0</ele>
        <time>2024-05-19T07:24:35Z</time>
      </trkpt>
      <trkpt lat="47.574634580" lon="10.952724740">
        <ele>1031.2</ele>
        <time>2024-05-19T07:24:53Z</time>
      </trkpt>
      <trkpt lat="47.574768523" lon="10.952613596">
        <ele>1034.0</ele>
        <time>2024-05-19T07:25:12Z</time>
      </trkpt>
      <trkpt lat="47.574891318" lon="10.952445790">
        <ele>1037.4</ele>
        <time>2024-05-19T07:25:32Z</time>
      </trkpt>
      <trkpt lat="47.575227432" lon="10.952179749">
        <ele>1044.1</ele>
        <time>2024-05-19T07:26:40Z</time>
      </trkpt>
      <trkpt lat="47.575212009" lon="10.952098779">
        <ele>1043.7</ele>
        <time>2024-05-19T07:26:56Z</time>
      </trkpt>
      <trkpt lat="47.575250817" lon="10.951843970">
        <ele>1045.1</ele>
        <time>2024-05-19T07:27:17Z</time>
      </trkpt>
      <trkpt lat="47.575295493" lon="10.951642636">
        <ele>1046.0</ele>
        <time>2024-05-19T07:27:31Z</time>
      </trkpt>
      <trkpt lat="47.575466819" lon="10.951093370">
        <ele>1050.4</ele>
        <time>2024-05-19T07:28:23Z</time>
      </trkpt>
      <trkpt lat="47.575616017" lon="10.951001840">
        <ele>1053.3</ele>
        <time>2024-05-19T07:28:43Z</time>
      </trkpt>
      <trkpt lat="47.575713499" lon="10.950828586">
        <ele>1056.2</ele>
        <time>2024-05-19T07:29:06Z</time>
      </trkpt>
      <trkpt lat="47.575899577" lon="10.950380657">
        <ele>1061.4</ele>
        <time>2024-05-19T07:29:53Z</time>
      </trkpt>
      <trkpt lat="47.575965039" lon="10.950017385">
        <ele>1065.8</ele>
        <time>2024-05-19T07:30:31Z</time>
      </trkpt>
      <trkpt lat="47.576006278" lon="10.949902050">
        <ele>1067.7</ele>
        <time>2024-05-19T07:30:45Z</time>
      </trkpt>
      <trkpt lat="47.576122033" lon="10.949810771">
        <ele>1070.1</ele>
        <time>2024-05-19T07:31:02Z</time>
      </trkpt>
      <trkpt lat="47.576152124" lon="10.949727539">
        <ele>1072.0</ele>
        <time>2024-05-19T07:31:16Z</time>
      </trkpt>
      <trkpt lat="47.576361336" lon="10.949632824">
        <ele>1076.8</ele>
        <time>2024-05-19T07:31:50Z</time>
      </trkpt>
      <trkpt lat="47.576448508" lon="10.949548250">
        <ele>1079.7</ele>
        <time>2024-05-19T07:32:13Z</time>
      </trkpt>
      <trkpt lat="47.576532578" lon="10.949399890">
        <ele>1082.1</ele>
        <time>2024-05-19T07:32:32Z</time>
      </trkpt>
      <trkpt lat="47.576631149" lon="10.949435346">
        <ele>1085.0</ele>
        <time>2024-05-19T07:32:51Z</time>
      </trkpt>
      <trkpt lat="47.576627126" lon="10.949565182">
        <ele>1087.9</ele>
        <time>2024-05-19T07:33:12Z</time>
      </trkpt>
      <trkpt lat="47.576652356" lon="10.949760815">
        <ele>1090.3</ele>
        <time>2024-05-19T07:33:32Z</time>
      </trkpt>
      <trkpt lat="47.576748077" lon="10.949962819">
        <ele>1092.2</ele>
        <time>2024-05-19T07:33:48Z</time>
      </trkpt>
      <trkpt lat="47.577061895" lon="10.950325336">
        <ele>1098.0</ele>
        <time>2024-05-19T07:34:34Z</time>
      </trkpt>
      <trkpt lat="47.577202208" lon="10.950385686">
        <ele>1100.4</ele>
        <time>2024-05-19T07:34:51Z</time>
      </trkpt>
      <trkpt lat="47.577355932" lon="10.950368336">
        <ele>1102.8</ele>
        <time>2024-05-19T07:35:12Z</time>
      </trkpt>
      <trkpt lat="47.577490378" lon="10.950422147">
        <ele>1105.7</ele>
        <time>2024-05-19T07:35:33Z</time>
      </trkpt>
      <trkpt lat="47.577592135" lon="10.950378394">
        <ele>1108.5</ele>
        <time>2024-05-19T07:35:51Z</time>
      </trkpt>
      <trkpt lat="47.577604707" lon="10.950152250">
        <ele>1111.4</ele>
        <time>2024-05-19T07:36:12Z</time>
      </trkpt>
      <trkpt lat="47.577693555" lon="10.949931638">
        <ele>1114.3</ele>
        <time>2024-05-19T07:36:35Z</time>
      </trkpt>
      <trkpt lat="47.577725155" lon="10.949487565">
        <ele>1119.1</ele>
        <time>2024-05-19T07:37:14Z</time>
      </trkpt>
      <trkpt lat="47.577821128" lon="10.949125634">
        <ele>1122.0</ele>
        <time>2024-05-19T07:37:46Z</time>
      </trkpt>
      <trkpt lat="47.577842670" lon="10.948954560">
        <ele>1125.4</ele>
        <time>2024-05-19T07:38:05Z</time>
      </trkpt>
      <trkpt lat="47.577938056" lon="10.948734954">
        <ele>1128.2</ele>
        <time>2024-05-19T07:38:25Z</time>
      </trkpt>
      <trkpt lat="47.578037549" lon="10.948639736">
        <ele>1131.1</ele>
        <time>2024-05-19T07:38:46Z</time>
      </trkpt>
      <trkpt lat="47.578233015" lon="10.948998900">
        <ele>1136.9</ele>
        <time>2024-05-19T07:39:27Z</time>
      </trkpt>
      <trkpt lat="47.578549683" lon="10.949467365">
        <ele>1144.6</ele>
        <time>2024-05-19T07:40:25Z</time>
      </trkpt>
      <trkpt lat="47.578923516" lon="10.949790236">
        <ele>1152.3</ele>
        <time>2024-05-19T07:41:22Z</time>
      </trkpt>
      <trkpt lat="47.579178577" lon="10.950106485">
        <ele>1158.5</ele>
        <time>2024-05-19T07:42:06Z</time>
      </trkpt>
      <trkpt lat="47.579211351" lon="10.950270183">
        <ele>1160.9</ele>
        <time>2024-05-19T07:42:23Z</time>
      </trkpt>
      <trkpt lat="47.579223253" lon="10.950461794">
        <ele>1163.8</ele>
        <time>2024-05-19T07:42:42Z</time>
      </trkpt>
      <trkpt lat="47.579163993" lon="10.950653823">
        <ele>1166.2</ele>
        <time>2024-05-19T07:43:00Z</time>
      </trkpt>
      <trkpt lat="47.579136752" lon="10.950862281">
        <ele>1168.6</ele>
        <time>2024-05-19T07:43:17Z</time>
      </trkpt>
      <trkpt lat="47.579193162" lon="10.951070068">
        <ele>1170.5</ele>
        <time>2024-05-19T07:43:32Z</time>
      </trkpt>
      <trkpt lat="47.579318052" lon="10.951163862">
        <ele>1173.4</ele>
        <time>2024-05-19T07:43:48Z</time>
      </trkpt>
      <trkpt lat="47.579409666" lon="10.951195378">
        <ele>1176.8</ele>
        <time>2024-05-19T07:44:01Z</time>
      </trkpt>
      <trkpt lat="47.579525169" lon="10.951145925">
        <ele>1179.7</ele>
        <time>2024-05-19T07:44:20Z</time>
      </trkpt>
      <trkpt lat="47.579620890" lon="10.950963199">
        <ele>1183.0</ele>
        <time>2024-05-19T07:44:40Z</time>
      </trkpt>
      <trkpt lat="47.579741003" lon="10.950875441">
        <ele>1185.4</ele>
        <time>2024-05-19T07:44:59Z</time>
      </trkpt>
      <trkpt lat="47.579877041" lon="10.950726913">
        <ele>1188.8</ele>
        <time>2024-05-19T07:45:18Z</time>
      </trkpt>
      <trkpt lat="47.579960106" lon="10.949930549">
        <ele>1197.0</ele>
        <time>2024-05-19T07:46:17Z</time>
      </trkpt>
      <trkpt lat="47.579956334" lon="10.949445823">
        <ele>1203.2</ele>
        <time>2024-05-19T07:47:02Z</time>
      </trkpt>
      <trkpt lat="47.579911407" lon="10.949216494">
        <ele>1205.2</ele>
        <time>2024-05-19T07:47:19Z</time>
      </trkpt>
      <trkpt lat="47.579912497" lon="10.948684076">
        <ele>1210.9</ele>
        <time>2024-05-19T07:48:01Z</time>
      </trkpt>
      <trkpt lat="47.579948623" lon="10.948640406">
        <ele>1213.3</ele>
        <time>2024-05-19T07:48:19Z</time>
      </trkpt>
      <trkpt lat="47.579994807" lon="10.948839644">
        <ele>1216.2</ele>
        <time>2024-05-19T07:48:39Z</time>
      </trkpt>
      <trkpt lat="47.580267973" lon="10.949338116">
        <ele>1222.9</ele>
        <time>2024-05-19T07:49:23Z</time>
      </trkpt>
      <trkpt lat="47.580357157" lon="10.949541293">
        <ele>1225.3</ele>
        <time>2024-05-19T07:49:40Z</time>
      </trkpt>
      <trkpt lat="47.580620684" lon="10.950587103">
        <ele>1238.8</ele>
        <time>2024-05-19T07:51:11Z</time>
      </trkpt>
      <trkpt lat="47.580708358" lon="10.950714257">
        <ele>1240.7</ele>
        <time>2024-05-19T07:51:26Z</time>
      </trkpt>
      <trkpt lat="47.580866860" lon="10.951094292">
        <ele>1246.0</ele>
        <time>2024-05-19T07:52:02Z</time>
      </trkpt>
      <trkpt lat="47.580955792" lon="10.951204682">
        <ele>1247.9</ele>
        <time>2024-05-19T07:52:20Z</time>
      </trkpt>
      <trkpt lat="47.581059560" lon="10.951487403">
        <ele>1250.8</ele>
        <time>2024-05-19T07:52:44Z</time>
      </trkpt>
      <trkpt lat="47.581106750" lon="10.951415571">
        <ele>1253.7</ele>
        <time>2024-05-19T07:53:04Z</time>
      </trkpt>
      <trkpt lat="47.581071462" lon="10.951187080">
        <ele>1256.6</ele>
        <time>2024-05-19T07:53:25Z</time>
      </trkpt>
      <trkpt lat="47.581065428" lon="10.951012401">
        <ele>1258.5</ele>
        <time>2024-05-19T07:53:40Z</time>
      </trkpt>
      <trkpt lat="47.580973897" lon="10.950644687">
        <ele>1263.3</ele>
        <time>2024-05-19T07:54:18Z</time>
      </trkpt>
      <trkpt lat="47.580937687" lon="10.950339921">
        <ele>1266.2</ele>
        <time>2024-05-19T07:54:43Z</time>
      </trkpt>
      <trkpt lat="47.581003821" lon="10.950045297">
        <ele>1269.6</ele>
        <time>2024-05-19T07:55:07Z</time>
      </trkpt>
      <trkpt lat="47.581035672" lon="10.949588819">
        <ele>1274.4</ele>
        <time>2024-05-19T07:55:47Z</time>
      </trkpt>
      <trkpt lat="47.581057046" lon="10.948486682">
        <ele>1286.9</ele>
        <time>2024-05-19T07:57:26Z</time>
      </trkpt>
      <trkpt lat="47.581099710" lon="10.947975805">
        <ele>1293.1</ele>
        <time>2024-05-19T07:58:12Z</time>
      </trkpt>
      <trkpt lat="47.581027541" lon="10.947734825">
        <ele>1295.5</ele>
        <time>2024-05-19T07:58:34Z</time>
      </trkpt>
      <trkpt lat="47.580958642" lon="10.947571294">
        <ele>1298.4</ele>
        <time>2024-05-19T07:58:55Z</time>
      </trkpt>
      <trkpt lat="47.580905752" lon="10.947033344">
        <ele>1304.2</ele>
        <time>2024-05-19T07:59:38Z</time>
      </trkpt>
      <trkpt lat="47.580910195" lon="10.946518108">
        <ele>1309.5</ele>
        <time>2024-05-19T08:00:23Z</time>
      </trkpt>
      <trkpt lat="47.580846157" lon="10.946300514">
        <ele>1312.3</ele>
        <time>2024-05-19T08:00:45Z</time>
      </trkpt>
      <trkpt lat="47.580827465" lon="10.946019469">
        <ele>1315.7</ele>
        <time>2024-05-19T08:01:08Z</time>
      </trkpt>
      <trkpt lat="47.580846408" lon="10.945431646">
        <ele>1321.5</ele>
        <time>2024-05-19T08:01:52Z</time>
      </trkpt>
      <trkpt lat="47.580920085" lon="10.945148757">
        <ele>1324.3</ele>
        <time>2024-05-19T08:02:16Z</time>
      </trkpt>
      <trkpt lat="47.580946321" lon="10.944956141">
        <ele>1326.8</ele>
        <time>2024-05-19T08:02:34Z</time>
      </trkpt>
      <trkpt lat="47.580929138" lon="10.944742234">
        <ele>1329.2</ele>
        <time>2024-05-19T08:02:51Z</time>
      </trkpt>
      <trkpt lat="47.580940453" lon="10.944502428">
        <ele>1331.6</ele>
        <time>2024-05-19T08:03:12Z</time>
      </trkpt>
      <trkpt lat="47.581040617" lon="10.943910750">
        <ele>1337.8</ele>
        <time>2024-05-19T08:04:02Z</time>
      </trkpt>
      <trkpt lat="47.581067523" lon="10.943519063">
        <ele>1341.2</ele>
        <time>2024-05-19T08:04:38Z</time>
      </trkpt>
      <trkpt lat="47.581121083" lon="10.943321753">
        <ele>1343.6</ele>
        <time>2024-05-19T08:04:56Z</time>
      </trkpt>
      <trkpt lat="47.581152432" lon="10.943099381">
        <ele>1346.0</ele>
        <time>2024-05-19T08:05:15Z</time>
      </trkpt>
      <trkpt lat="47.581283441" lon="10.942516671">
        <ele>1352.2</ele>
        <time>2024-05-19T08:06:10Z</time>
      </trkpt>
      <trkpt lat="47.581303641" lon="10.942158597">
        <ele>1356.1</ele>
        <time>2024-05-19T08:06:42Z</time>
      </trkpt>
      <trkpt lat="47.581416629" lon="10.942017948">
        <ele>1358.5</ele>
        <time>2024-05-19T08:07:02Z</time>
      </trkpt>
      <trkpt lat="47.581502879" lon="10.941830529">
        <ele>1360.4</ele>
        <time>2024-05-19T08:07:21Z</time>
      </trkpt>
      <trkpt lat="47.581535317" lon="10.941643361">
        <ele>1362.8</ele>
        <time>2024-05-19T08:07:40Z</time>
      </trkpt>
      <trkpt lat="47.581610838" lon="10.941457115">
        <ele>1365.2</ele>
        <time>2024-05-19T08:08:01Z</time>
      </trkpt>
      <trkpt lat="47.581605641" lon="10.941312779">
        <ele>1367.1</ele>
        <time>2024-05-19T08:08:17Z</time>
      </trkpt>
      <trkpt lat="47.581508243" lon="10.941128461">
        <ele>1370.0</ele>
        <time>2024-05-19T08:08:40Z</time>
      </trkpt>
      <trkpt lat="47.581434315" lon="10.941093173">
        <ele>1371.9</ele>
        <time>2024-05-19T08:09:01Z</time>
      </trkpt>
      <trkpt lat="47.581411349" lon="10.940872058">
        <ele>1373.9</ele>
        <time>2024-05-19T08:09:21Z</time>
      </trkpt>
      <trkpt lat="47.581399782" lon="10.940413149">
        <ele>1378.7</ele>
        <time>2024-05-19T08:10:04Z</time>
      </trkpt>
      <trkpt lat="47.581496760" lon="10.940152640">
        <ele>1381.5</ele>
        <time>2024-05-19T08:10:31Z</time>
      </trkpt>
      <trkpt lat="47.581610922" lon="10.940050632">
        <ele>1384.0</ele>
        <time>2024-05-19T08:10:49Z</time>
      </trkpt>
      <trkpt lat="47.581700357" lon="10.939857261">
        <ele>1386.8</ele>
        <time>2024-05-19T08:11:13Z</time>
      </trkpt>
      <trkpt lat="47.581649395" lon="10.939327944">
        <ele>1392.6</ele>
        <time>2024-05-19T08:12:03Z</time>
      </trkpt>
      <trkpt lat="47.581723491" lon="10.938898120">
        <ele>1396.9</ele>
        <time>2024-05-19T08:12:40Z</time>
      </trkpt>
      <trkpt lat="47.581744278" lon="10.938653452">
        <ele>1399.3</ele>
        <time>2024-05-19T08:13:01Z</time>
      </trkpt>
      <trkpt lat="47.581807729" lon="10.938637527">
        <ele>1400.8</ele>
        <time>2024-05-19T08:13:16Z</time>
      </trkpt>
      <trkpt lat="47.581841340" lon="10.938963415">
        <ele>1404.6</ele>
        <time>2024-05-19T08:13:46Z</time>
      </trkpt>
      <trkpt lat="47.581894146" lon="10.939162234">
        <ele>1407.5</ele>
        <time>2024-05-19T08:14:08Z</time>
      </trkpt>
      <trkpt lat="47.581985928" lon="10.939368512">
        <ele>1409.4</ele>
        <time>2024-05-19T08:14:25Z</time>
      </trkpt>
      <trkpt lat="47.582024150" lon="10.939405896">
        <ele>1409.9</ele>
        <time>2024-05-19T08:14:30Z</time>
      </trkpt>
      <trkpt lat="47.582067652" lon="10.939539084">
        <ele>1411.8</ele>
        <time>2024-05-19T08:14:43Z</time>
      </trkpt>
      <trkpt lat="47.582078883" lon="10.940059600">
        <ele>1418.1</ele>
        <time>2024-05-19T08:15:31Z</time>
      </trkpt>
      <trkpt lat="47.582127918" lon="10.940245846">
        <ele>1420.0</ele>
        <time>2024-05-19T08:15:47Z</time>
      </trkpt>
      <trkpt lat="47.582146106" lon="10.940420441">
        <ele>1421.9</ele>
        <time>2024-05-19T08:16:03Z</time>
      </trkpt>
      <trkpt lat="47.582333023" lon="10.940925032">
        <ele>1428.2</ele>
        <time>2024-05-19T08:16:55Z</time>
      </trkpt>
      <trkpt lat="47.582358168" lon="10.941125024">
        <ele>1430.6</ele>
        <time>2024-05-19T08:17:15Z</time>
      </trkpt>
      <trkpt lat="47.582431091" lon="10.941343205">
        <ele>1433.5</ele>
        <time>2024-05-19T08:17:36Z</time>
      </trkpt>
      <trkpt lat="47.582446346" lon="10.941710081">
        <ele>1437.8</ele>
        <time>2024-05-19T08:18:14Z</time>
      </trkpt>
      <trkpt lat="47.582508037" lon="10.941858441">
        <ele>1440.7</ele>
        <time>2024-05-19T08:18:36Z</time>
      </trkpt>
      <trkpt lat="47.582568722" lon="10.941468012">
        <ele>1445.5</ele>
        <time>2024-05-19T08:19:16Z</time>
      </trkpt>
      <trkpt lat="47.582581462" lon="10.941255782">
        <ele>1447.9</ele>
        <time>2024-05-19T08:19:36Z</time>
      </trkpt>
      <trkpt lat="47.582572494" lon="10.940819168">
        <ele>1451.2</ele>
        <time>2024-05-19T08:20:13Z</time>
      </trkpt>
      <trkpt lat="47.582591604" lon="10.940663349">
        <ele>1453.2</ele>
        <time>2024-05-19T08:20:32Z</time>
      </trkpt>
      <trkpt lat="47.582584983" lon="10.940573663">
        <ele>1455.6</ele>
        <time>2024-05-19T08:20:51Z</time>
      </trkpt>
      <trkpt lat="47.582625467" lon="10.940429159">
        <ele>1456.5</ele>
        <time>2024-05-19T08:21:12Z</time>
      </trkpt>
      <trkpt lat="47.582628652" lon="10.940173259">
        <ele>1459.4</ele>
        <time>2024-05-19T08:21:36Z</time>
      </trkpt>
      <trkpt lat="47.582685649" lon="10.939780986">
        <ele>1462.8</ele>
        <time>2024-05-19T08:22:15Z</time>
      </trkpt>
      <trkpt lat="47.582711382" lon="10.939841168">
        <ele>1464.7</ele>
        <time>2024-05-19T08:22:31Z</time>
      </trkpt>
      <trkpt lat="47.582703671" lon="10.939952983">
        <ele>1466.6</ele>
        <time>2024-05-19T08:22:46Z</time>
      </trkpt>
      <trkpt lat="47.582798637" lon="10.940221958">
        <ele>1470.0</ele>
        <time>2024-05-19T08:23:11Z</time>
      </trkpt>
      <trkpt lat="47.582818922" lon="10.940508200">
        <ele>1472.9</ele>
        <time>2024-05-19T08:23:33Z</time>
      </trkpt>
      <trkpt lat="47.582869213" lon="10.940836771">
        <ele>1475.8</ele>
        <time>2024-05-19T08:24:02Z</time>
      </trkpt>
      <trkpt lat="47.582933921" lon="10.940920003">
        <ele>1478.2</ele>
        <time>2024-05-19T08:24:19Z</time>
      </trkpt>
      <trkpt lat="47.582929479" lon="10.940551450">
        <ele>1482.5</ele>
        <time>2024-05-19T08:24:55Z</time>
      </trkpt>
      <trkpt lat="47.583064931" lon="10.940027246">
        <ele>1490.2</ele>
        <time>2024-05-19T08:25:51Z</time>
      </trkpt>
      <trkpt lat="47.583134500" lon="10.939602954">
        <ele>1495.0</ele>
        <time>2024-05-19T08:26:34Z</time>
      </trkpt>
      <trkpt lat="47.583281184" lon="10.938880602">
        <ele>1504.1</ele>
        <time>2024-05-19T08:27:42Z</time>
      </trkpt>
      <trkpt lat="47.583470279" lon="10.938368887">
        <ele>1510.4</ele>
        <time>2024-05-19T08:28:27Z</time>
      </trkpt>
      <trkpt lat="47.583647138" lon="10.937986169">
        <ele>1515.7</ele>
        <time>2024-05-19T08:29:07Z</time>
      </trkpt>
      <trkpt lat="47.583743613" lon="10.937633123">
        <ele>1519.5</ele>
        <time>2024-05-19T08:29:39Z</time>
      </trkpt>
      <trkpt lat="47.583855931" lon="10.937334141">
        <ele>1522.9</ele>
        <time>2024-05-19T08:30:03Z</time>
      </trkpt>
      <trkpt lat="47.583896332" lon="10.937004648">
        <ele>1526.2</ele>
        <time>2024-05-19T08:30:44Z</time>
      </trkpt>
      <trkpt lat="47.583909994" lon="10.936692255">
        <ele>1528.6</ele>
        <time>2024-05-19T08:31:05Z</time>
      </trkpt>
      <trkpt lat="47.583848471" lon="10.936079454">
        <ele>1532.0</ele>
        <time>2024-05-19T08:31:47Z</time>
      </trkpt>
      <trkpt lat="47.583805891" lon="10.935817268">
        <ele>1533.9</ele>
        <time>2024-05-19T08:32:08Z</time>
      </trkpt>
      <trkpt lat="47.583738836" lon="10.935547287">
        <ele>1535.4</ele>
        <time>2024-05-19T08:32:45Z</time>
      </trkpt>
      <trkpt lat="47.583664572" lon="10.935402615">
        <ele>1536.8</ele>
        <time>2024-05-19T08:33:02Z</time>
      </trkpt>
      <trkpt lat="47.583616963" lon="10.935191475">
        <ele>1537.8</ele>
        <time>2024-05-19T08:33:22Z</time>
      </trkpt>
      <trkpt lat="47.583597265" lon="10.934971701">
        <ele>1538.7</ele>
        <time>2024-05-19T08:34:02Z</time>
      </trkpt>
      <trkpt lat="47.583568012" lon="10.934850751">
        <ele>1539.2</ele>
        <time>2024-05-19T08:34:27Z</time>
      </trkpt>
      <trkpt lat="47.583601959" lon="10.934640197">
        <ele>1541.1</ele>
        <time>2024-05-19T08:34:49Z</time>
      </trkpt>
      <trkpt lat="47.583584357" lon="10.934403911">
        <ele>1543.5</ele>
        <time>2024-05-19T08:35:12Z</time>
      </trkpt>
      <trkpt lat="47.583601624" lon="10.933659933">
        <ele>1549.8</ele>
        <time>2024-05-19T08:36:05Z</time>
      </trkpt>
      <trkpt lat="47.583732717" lon="10.932914112">
        <ele>1555.5</ele>
        <time>2024-05-19T08:36:56Z</time>
      </trkpt>
      <trkpt lat="47.583712349" lon="10.932662906">
        <ele>1557.5</ele>
        <time>2024-05-19T08:37:12Z</time>
      </trkpt>
      <trkpt lat="47.583610341" lon="10.932030408">
        <ele>1562.8</ele>
        <time>2024-05-19T08:37:56Z</time>
      </trkpt>
      <trkpt lat="47.583597349" lon="10.931777358">
        <ele>1564.7</ele>
        <time>2024-05-19T08:38:13Z</time>
      </trkpt>
      <trkpt lat="47.583527193" lon="10.931432527">
        <ele>1567.6</ele>
        <time>2024-05-19T08:38:42Z</time>
      </trkpt>
      <trkpt lat="47.583467513" lon="10.931102531">
        <ele>1569.0</ele>
        <time>2024-05-19T08:39:42Z</time>
      </trkpt>
      <trkpt lat="47.583369361" lon="10.930733057">
        <ele>1571.9</ele>
        <time>2024-05-19T08:40:05Z</time>
      </trkpt>
      <trkpt lat="47.583322087" lon="10.930211451">
        <ele>1576.7</ele>
        <time>2024-05-19T08:40:39Z</time>
      </trkpt>
      <trkpt lat="47.583338013" lon="10.930124447">
        <ele>1576.7</ele>
        <time>2024-05-19T08:40:57Z</time>
      </trkpt>
      <trkpt lat="47.583335750" lon="10.929786321">
        <ele>1577.2</ele>
        <time>2024-05-19T08:41:16Z</time>
      </trkpt>
      <trkpt lat="47.583305659" lon="10.929505862">
        <ele>1579.6</ele>
        <time>2024-05-19T08:41:36Z</time>
      </trkpt>
      <trkpt lat="47.583287219" lon="10.928944191">
        <ele>1584.4</ele>
        <time>2024-05-19T08:42:13Z</time>
      </trkpt>
      <trkpt lat="47.583299289" lon="10.928519396">
        <ele>1587.8</ele>
        <time>2024-05-19T08:42:41Z</time>
      </trkpt>
      <trkpt lat="47.583250757" lon="10.928147910">
        <ele>1590.2</ele>
        <time>2024-05-19T08:43:04Z</time>
      </trkpt>
      <trkpt lat="47.583187306" lon="10.927842138">
        <ele>1592.1</ele>
        <time>2024-05-19T08:43:22Z</time>
      </trkpt>
      <trkpt lat="47.583106589" lon="10.927623371">
        <ele>1594.5</ele>
        <time>2024-05-19T08:43:39Z</time>
      </trkpt>
      <trkpt lat="47.583074905" lon="10.927601494">
        <ele>1595.0</ele>
        <time>2024-05-19T08:43:42Z</time>
      </trkpt>
      <trkpt lat="47.582935263" lon="10.927393455">
        <ele>1597.4</ele>
        <time>2024-05-19T08:44:02Z</time>
      </trkpt>
      <trkpt lat="47.582784304" lon="10.927264541">
        <ele>1599.8</ele>
        <time>2024-05-19T08:44:19Z</time>
      </trkpt>
      <trkpt lat="47.582692858" lon="10.927242162">
        <ele>1600.7</ele>
        <time>2024-05-19T08:44:28Z</time>
      </trkpt>
      <trkpt lat="47.582535027" lon="10.927335704">
        <ele>1602.2</ele>
        <time>2024-05-19T08:44:47Z</time>
      </trkpt>
      <trkpt lat="47.582461769" lon="10.927454475">
        <ele>1603.6</ele>
        <time>2024-05-19T08:46:59Z</time>
      </trkpt>
      <trkpt lat="47.582311481" lon="10.927473335">
        <ele>1606.0</ele>
        <time>2024-05-19T08:47:23Z</time>
      </trkpt>
      <trkpt lat="47.582065724" lon="10.927476520">
        <ele>1607.5</ele>
        <time>2024-05-19T08:47:45Z</time>
      </trkpt>
      <trkpt lat="47.581973523" lon="10.927459002">
        <ele>1609.4</ele>
        <time>2024-05-19T08:48:17Z</time>
      </trkpt>
      <trkpt lat="47.581935134" lon="10.927279042">
        <ele>1609.4</ele>
        <time>2024-05-19T08:48:48Z</time>
      </trkpt>
      <trkpt lat="47.581948042" lon="10.927283485">
        <ele>1609.9</ele>
        <time>2024-05-19T08:49:06Z</time>
      </trkpt>
      <trkpt lat="47.581987437" lon="10.927224727">
        <ele>1610.8</ele>
        <time>2024-05-19T08:49:18Z</time>
      </trkpt>
      <trkpt lat="47.581970003" lon="10.927193882">
        <ele>1611.8</ele>
        <time>2024-05-19T08:49:34Z</time>
      </trkpt>
      <trkpt lat="47.581991292" lon="10.927132778">
        <ele>1611.8</ele>
        <time>2024-05-19T08:49:43Z</time>
      </trkpt>
      <trkpt lat="47.581994310" lon="10.927004870">
        <ele>1613.7</ele>
        <time>2024-05-19T08:49:54Z</time>
      </trkpt>
      <trkpt lat="47.582082991" lon="10.927076200">
        <ele>1616.1</ele>
        <time>2024-05-19T08:50:06Z</time>
      </trkpt>
      <trkpt lat="47.582146190" lon="10.927090114">
        <ele>1618.0</ele>
        <time>2024-05-19T08:50:20Z</time>
      </trkpt>
      <trkpt lat="47.582131438" lon="10.926898923">
        <ele>1622.4</ele>
        <time>2024-05-19T08:50:46Z</time>
      </trkpt>
      <trkpt lat="47.582189860" lon="10.926733548">
        <ele>1627.2</ele>
        <time>2024-05-19T08:51:15Z</time>
      </trkpt>
      <trkpt lat="47.582193464" lon="10.926479073">
        <ele>1632.9</ele>
        <time>2024-05-19T08:51:47Z</time>
      </trkpt>
      <trkpt lat="47.582225567" lon="10.926348818">
        <ele>1635.8</ele>
        <time>2024-05-19T08:52:03Z</time>
      </trkpt>
      <trkpt lat="47.582289185" lon="10.926290899">
        <ele>1638.7</ele>
        <time>2024-05-19T08:52:18Z</time>
      </trkpt>
      <trkpt lat="47.582333945" lon="10.926198531">
        <ele>1641.6</ele>
        <time>2024-05-19T08:52:32Z</time>
      </trkpt>
      <trkpt lat="47.582380883" lon="10.926148072">
        <ele>1643.5</ele>
        <time>2024-05-19T08:52:45Z</time>
      </trkpt>
      <trkpt lat="47.582356157" lon="10.925952354">
        <ele>1648.3</ele>
        <time>2024-05-19T08:53:11Z</time>
      </trkpt>
      <trkpt lat="47.582428576" lon="10.925869793">
        <ele>1652.2</ele>
        <time>2024-05-19T08:53:36Z</time>
      </trkpt>
      <trkpt lat="47.582426481" lon="10.925796954">
        <ele>1655.5</ele>
        <time>2024-05-19T08:53:48Z</time>
      </trkpt>
      <trkpt lat="47.582463864" lon="10.925752278">
        <ele>1657.9</ele>
        <time>2024-05-19T08:54:01Z</time>
      </trkpt>
      <trkpt lat="47.582465708" lon="10.925660161">
        <ele>1660.8</ele>
        <time>2024-05-19T08:54:17Z</time>
      </trkpt>
      <trkpt lat="47.582547432" lon="10.925407279">
        <ele>1669.0</ele>
        <time>2024-05-19T08:55:05Z</time>
      </trkpt>
      <trkpt lat="47.582527986" lon="10.925038895">
        <ele>1676.7</ele>
        <time>2024-05-19T08:55:58Z</time>
      </trkpt>
      <trkpt lat="47.582543995" lon="10.924915010">
        <ele>1679.6</ele>
        <time>2024-05-19T08:56:17Z</time>
      </trkpt>
      <trkpt lat="47.582526393" lon="10.924813086">
        <ele>1682.0</ele>
        <time>2024-05-19T08:56:33Z</time>
      </trkpt>
      <trkpt lat="47.582528153" lon="10.924717868">
        <ele>1684.4</ele>
        <time>2024-05-19T08:56:47Z</time>
      </trkpt>
      <trkpt lat="47.582564615" lon="10.924704792">
        <ele>1686.8</ele>
        <time>2024-05-19T08:57:01Z</time>
      </trkpt>
      <trkpt lat="47.582582049" lon="10.924523743">
        <ele>1691.6</ele>
        <time>2024-05-19T08:57:35Z</time>
      </trkpt>
      <trkpt lat="47.582613397" lon="10.924461549">
        <ele>1694.0</ele>
        <time>2024-05-19T08:57:49Z</time>
      </trkpt>
      <trkpt lat="47.582655223" lon="10.924433302">
        <ele>1695.9</ele>
        <time>2024-05-19T08:58:02Z</time>
      </trkpt>
      <trkpt lat="47.582677519" lon="10.924272956">
        <ele>1700.2</ele>
        <time>2024-05-19T08:58:33Z</time>
      </trkpt>
      <trkpt lat="47.582702748" lon="10.924223503">
        <ele>1702.6</ele>
        <time>2024-05-19T08:58:49Z</time>
      </trkpt>
      <trkpt lat="47.582706269" lon="10.924031055">
        <ele>1705.5</ele>
        <time>2024-05-19T08:59:23Z</time>
      </trkpt>
      <trkpt lat="47.582684811" lon="10.923992749">
        <ele>1705.0</ele>
        <time>2024-05-19T08:59:41Z</time>
      </trkpt>
      <trkpt lat="47.582713813" lon="10.923894849">
        <ele>1708.4</ele>
        <time>2024-05-19T09:01:50Z</time>
      </trkpt>
      <trkpt lat="47.582798135" lon="10.923738945">
        <ele>1711.8</ele>
        <time>2024-05-19T09:03:39Z</time>
      </trkpt>
      <trkpt lat="47.582794447" lon="10.923719918">
        <ele>1711.3</ele>
        <time>2024-05-19T09:03:54Z</time>
      </trkpt>
      <trkpt lat="47.582801906" lon="10.923760906">
        <ele>1711.3</ele>
        <time>2024-05-19T09:04:21Z</time>
      </trkpt>
      <trkpt lat="47.582790842" lon="10.923774065">
        <ele>1707.4</ele>
        <time>2024-05-19T09:07:30Z</time>
      </trkpt>
      <trkpt lat="47.582788328" lon="10.923747998">
        <ele>1708.4</ele>
        <time>2024-05-19T09:08:14Z</time>
      </trkpt>
      <trkpt lat="47.582717417" lon="10.923894513">
        <ele>1702.6</ele>
        <time>2024-05-19T09:09:31Z</time>
      </trkpt>
      <trkpt lat="47.582712639" lon="10.923932064">
        <ele>1701.2</ele>
        <time>2024-05-19T09:10:15Z</time>
      </trkpt>
      <trkpt lat="47.582686991" lon="10.923956959">
        <ele>1698.8</ele>
        <time>2024-05-19T09:10:53Z</time>
      </trkpt>
      <trkpt lat="47.582705514" lon="10.924046980">
        <ele>1697.8</ele>
        <time>2024-05-19T09:11:06Z</time>
      </trkpt>
      <trkpt lat="47.582699060" lon="10.924235825">
        <ele>1696.4</ele>
        <time>2024-05-19T09:11:25Z</time>
      </trkpt>
      <trkpt lat="47.582656145" lon="10.924442774">
        <ele>1689.2</ele>
        <time>2024-05-19T09:11:57Z</time>
      </trkpt>
      <trkpt lat="47.582604177" lon="10.924487617">
        <ele>1686.3</ele>
        <time>2024-05-19T09:12:10Z</time>
      </trkpt>
      <trkpt lat="47.582579870" lon="10.924589541">
        <ele>1683.4</ele>
        <time>2024-05-19T09:12:25Z</time>
      </trkpt>
      <trkpt lat="47.582584647" lon="10.924700350">
        <ele>1680.0</ele>
        <time>2024-05-19T09:12:39Z</time>
      </trkpt>
      <trkpt lat="47.582563190" lon="10.924677970">
        <ele>1677.6</ele>
        <time>2024-05-19T09:12:56Z</time>
      </trkpt>
      <trkpt lat="47.582539134" lon="10.924696913">
        <ele>1677.2</ele>
        <time>2024-05-19T09:13:17Z</time>
      </trkpt>
      <trkpt lat="47.582540391" lon="10.924800010">
        <ele>1674.3</ele>
        <time>2024-05-19T09:13:31Z</time>
      </trkpt>
      <trkpt lat="47.582557825" lon="10.924881315">
        <ele>1671.4</ele>
        <time>2024-05-19T09:13:43Z</time>
      </trkpt>
      <trkpt lat="47.582533769" lon="10.925002853">
        <ele>1668.0</ele>
        <time>2024-05-19T09:13:56Z</time>
      </trkpt>
      <trkpt lat="47.582547180" lon="10.925303092">
        <ele>1662.3</ele>
        <time>2024-05-19T09:14:25Z</time>
      </trkpt>
      <trkpt lat="47.582562184" lon="10.925365621">
        <ele>1661.3</ele>
        <time>2024-05-19T09:14:44Z</time>
      </trkpt>
      <trkpt lat="47.582556484" lon="10.925449273">
        <ele>1659.4</ele>
        <time>2024-05-19T09:14:55Z</time>
      </trkpt>
      <trkpt lat="47.582540223" lon="10.925524794">
        <ele>1656.5</ele>
        <time>2024-05-19T09:15:08Z</time>
      </trkpt>
      <trkpt lat="47.582485406" lon="10.925614564">
        <ele>1651.7</ele>
        <time>2024-05-19T09:15:31Z</time>
      </trkpt>
      <trkpt lat="47.582471659" lon="10.925775664">
        <ele>1646.4</ele>
        <time>2024-05-19T09:15:59Z</time>
      </trkpt>
      <trkpt lat="47.582405861" lon="10.925908685">
        <ele>1639.2</ele>
        <time>2024-05-19T09:16:37Z</time>
      </trkpt>
      <trkpt lat="47.582370825" lon="10.925919497">
        <ele>1637.3</ele>
        <time>2024-05-19T09:16:48Z</time>
      </trkpt>
      <trkpt lat="47.582368227" lon="10.925997533">
        <ele>1635.3</ele>
        <time>2024-05-19T09:16:59Z</time>
      </trkpt>
      <trkpt lat="47.582388846" lon="10.926111694">
        <ele>1633.4</ele>
        <time>2024-05-19T09:17:13Z</time>
      </trkpt>
      <trkpt lat="47.582345763" lon="10.926212696">
        <ele>1630.0</ele>
        <time>2024-05-19T09:17:26Z</time>
      </trkpt>
      <trkpt lat="47.582250880" lon="10.926341023">
        <ele>1625.2</ele>
        <time>2024-05-19T09:17:45Z</time>
      </trkpt>
      <trkpt lat="47.582218107" lon="10.926445210">
        <ele>1622.4</ele>
        <time>2024-05-19T09:17:56Z</time>
      </trkpt>
      <trkpt lat="47.582215508" lon="10.926669007">
        <ele>1616.6</ele>
        <time>2024-05-19T09:18:31Z</time>
      </trkpt>
      <trkpt lat="47.582152812" lon="10.926844105">
        <ele>1612.3</ele>
        <time>2024-05-19T09:19:10Z</time>
      </trkpt>
      <trkpt lat="47.582143340" lon="10.927054994">
        <ele>1606.5</ele>
        <time>2024-05-19T09:19:38Z</time>
      </trkpt>
      <trkpt lat="47.582173264" lon="10.927090282">
        <ele>1606.0</ele>
        <time>2024-05-19T09:19:49Z</time>
      </trkpt>
      <trkpt lat="47.582150633" lon="10.927073350">
        <ele>1606.0</ele>
        <time>2024-05-19T09:20:05Z</time>
      </trkpt>
      <trkpt lat="47.582136132" lon="10.927106040">
        <ele>1605.1</ele>
        <time>2024-05-19T09:20:15Z</time>
      </trkpt>
      <trkpt lat="47.582030017" lon="10.927018113">
        <ele>1603.1</ele>
        <time>2024-05-19T09:20:34Z</time>
      </trkpt>
      <trkpt lat="47.582008308" lon="10.927179800">
        <ele>1599.8</ele>
        <time>2024-05-19T09:20:56Z</time>
      </trkpt>
      <trkpt lat="47.581973774" lon="10.927292537">
        <ele>1597.4</ele>
        <time>2024-05-19T09:21:10Z</time>
      </trkpt>
      <trkpt lat="47.581956340" lon="10.927264374">
        <ele>1595.9</ele>
        <time>2024-05-19T09:21:47Z</time>
      </trkpt>
      <trkpt lat="47.581975116" lon="10.927198492">
        <ele>1594.5</ele>
        <time>2024-05-19T09:42:24Z</time>
      </trkpt>
      <trkpt lat="47.581990538" lon="10.927270828">
        <ele>1595.9</ele>
        <time>2024-05-19T09:43:12Z</time>
      </trkpt>
      <trkpt lat="47.582005374" lon="10.927276947">
        <ele>1595.9</ele>
        <time>2024-05-19T09:43:28Z</time>
      </trkpt>
      <trkpt lat="47.582014343" lon="10.927364454">
        <ele>1595.0</ele>
        <time>2024-05-19T09:43:43Z</time>
      </trkpt>
      <trkpt lat="47.581980899" lon="10.927412733">
        <ele>1594.5</ele>
        <time>2024-05-19T09:44:19Z</time>
      </trkpt>
      <trkpt lat="47.582107130" lon="10.927479872">
        <ele>1592.6</ele>
        <time>2024-05-19T09:44:36Z</time>
      </trkpt>
      <trkpt lat="47.582157757" lon="10.927481214">
        <ele>1591.6</ele>
        <time>2024-05-19T09:44:42Z</time>
      </trkpt>
      <trkpt lat="47.582533350" lon="10.927448859">
        <ele>1588.2</ele>
        <time>2024-05-19T09:45:16Z</time>
      </trkpt>
      <trkpt lat="47.582584815" lon="10.927301841">
        <ele>1586.8</ele>
        <time>2024-05-19T09:45:27Z</time>
      </trkpt>
      <trkpt lat="47.582795955" lon="10.927257584">
        <ele>1583.9</ele>
        <time>2024-05-19T09:45:46Z</time>
      </trkpt>
      <trkpt lat="47.582977340" lon="10.927400244">
        <ele>1581.0</ele>
        <time>2024-05-19T09:46:06Z</time>
      </trkpt>
      <trkpt lat="47.583033247" lon="10.927409967">
        <ele>1579.6</ele>
        <time>2024-05-19T09:46:46Z</time>
      </trkpt>
      <trkpt lat="47.583048334" lon="10.927469814">
        <ele>1579.6</ele>
        <time>2024-05-19T09:46:51Z</time>
      </trkpt>
      <trkpt lat="47.583185378" lon="10.927621443">
        <ele>1578.6</ele>
        <time>2024-05-19T09:47:07Z</time>
      </trkpt>
      <trkpt lat="47.583255284" lon="10.927893184">
        <ele>1576.2</ele>
        <time>2024-05-19T09:47:24Z</time>
      </trkpt>
      <trkpt lat="47.583300043" lon="10.928303143">
        <ele>1572.8</ele>
        <time>2024-05-19T09:48:14Z</time>
      </trkpt>
      <trkpt lat="47.583261989" lon="10.928884847">
        <ele>1568.0</ele>
        <time>2024-05-19T09:48:52Z</time>
      </trkpt>
      <trkpt lat="47.583281854" lon="10.929416511">
        <ele>1563.7</ele>
        <time>2024-05-19T09:49:25Z</time>
      </trkpt>
      <trkpt lat="47.583323680" lon="10.929559842">
        <ele>1562.3</ele>
        <time>2024-05-19T09:49:40Z</time>
      </trkpt>
      <trkpt lat="47.583369780" lon="10.929877516">
        <ele>1559.9</ele>
        <time>2024-05-19T09:50:16Z</time>
      </trkpt>
      <trkpt lat="47.583197448" lon="10.930033419">
        <ele>1554.1</ele>
        <time>2024-05-19T09:51:41Z</time>
      </trkpt>
      <trkpt lat="47.582969796" lon="10.930070216">
        <ele>1547.9</ele>
        <time>2024-05-19T09:52:14Z</time>
      </trkpt>
      <trkpt lat="47.582941884" lon="10.929880869">
        <ele>1544.0</ele>
        <time>2024-05-19T09:52:45Z</time>
      </trkpt>
      <trkpt lat="47.582895700" lon="10.929810880">
        <ele>1542.6</ele>
        <time>2024-05-19T09:53:00Z</time>
      </trkpt>
      <trkpt lat="47.582878685" lon="10.929564787">
        <ele>1539.7</ele>
        <time>2024-05-19T09:53:24Z</time>
      </trkpt>
      <trkpt lat="47.582834093" lon="10.929467222">
        <ele>1536.8</ele>
        <time>2024-05-19T09:53:39Z</time>
      </trkpt>
      <trkpt lat="47.582766702" lon="10.929501252">
        <ele>1534.4</ele>
        <time>2024-05-19T09:54:01Z</time>
      </trkpt>
      <trkpt lat="47.582637202" lon="10.929518938">
        <ele>1531.5</ele>
        <time>2024-05-19T09:54:18Z</time>
      </trkpt>
      <trkpt lat="47.582509043" lon="10.929658329">
        <ele>1525.8</ele>
        <time>2024-05-19T09:54:49Z</time>
      </trkpt>
      <trkpt lat="47.582453974" lon="10.929602422">
        <ele>1523.3</ele>
        <time>2024-05-19T09:55:07Z</time>
      </trkpt>
      <trkpt lat="47.582439892" lon="10.929539222">
        <ele>1520.9</ele>
        <time>2024-05-19T09:55:23Z</time>
      </trkpt>
      <trkpt lat="47.582317684" lon="10.929667885">
        <ele>1514.2</ele>
        <time>2024-05-19T09:56:05Z</time>
      </trkpt>
      <trkpt lat="47.582278456" lon="10.929642152">
        <ele>1511.8</ele>
        <time>2024-05-19T09:56:20Z</time>
      </trkpt>
      <trkpt lat="47.582219029" lon="10.929859159">
        <ele>1507.5</ele>
        <time>2024-05-19T09:56:48Z</time>
      </trkpt>
      <trkpt lat="47.582188016" lon="10.929879360">
        <ele>1505.1</ele>
        <time>2024-05-19T09:57:03Z</time>
      </trkpt>
      <trkpt lat="47.582145855" lon="10.929993354">
        <ele>1503.2</ele>
        <time>2024-05-19T09:57:37Z</time>
      </trkpt>
      <trkpt lat="47.581914598" lon="10.930333910">
        <ele>1487.8</ele>
        <time>2024-05-19T09:58:55Z</time>
      </trkpt>
      <trkpt lat="47.581888447" lon="10.930497860">
        <ele>1486.3</ele>
        <time>2024-05-19T09:59:09Z</time>
      </trkpt>
      <trkpt lat="47.581831701" lon="10.930645382">
        <ele>1485.8</ele>
        <time>2024-05-19T09:59:22Z</time>
      </trkpt>
      <trkpt lat="47.581780404" lon="10.930732470">
        <ele>1484.4</ele>
        <time>2024-05-19T09:59:36Z</time>
      </trkpt>
      <trkpt lat="47.581683174" lon="10.930797346">
        <ele>1479.1</ele>
        <time>2024-05-19T10:00:00Z</time>
      </trkpt>
      <trkpt lat="47.581475219" lon="10.931063891">
        <ele>1470.0</ele>
        <time>2024-05-19T10:00:49Z</time>
      </trkpt>
      <trkpt lat="47.581444709" lon="10.931093730">
        <ele>1467.6</ele>
        <time>2024-05-19T10:01:06Z</time>
      </trkpt>
      <trkpt lat="47.581395423" lon="10.931098340">
        <ele>1465.2</ele>
        <time>2024-05-19T10:01:59Z</time>
      </trkpt>
      <trkpt lat="47.581378073" lon="10.930973701">
        <ele>1463.3</ele>
        <time>2024-05-19T10:02:17Z</time>
      </trkpt>
      <trkpt lat="47.581364829" lon="10.931020891">
        <ele>1461.8</ele>
        <time>2024-05-19T10:02:31Z</time>
      </trkpt>
      <trkpt lat="47.581291152" lon="10.931001361">
        <ele>1458.9</ele>
        <time>2024-05-19T10:02:53Z</time>
      </trkpt>
      <trkpt lat="47.581255361" lon="10.930923745">
        <ele>1455.6</ele>
        <time>2024-05-19T10:03:06Z</time>
      </trkpt>
      <trkpt lat="47.581205154" lon="10.931056934">
        <ele>1453.7</ele>
        <time>2024-05-19T10:03:23Z</time>
      </trkpt>
      <trkpt lat="47.581055453" lon="10.931112338">
        <ele>1447.4</ele>
        <time>2024-05-19T10:03:56Z</time>
      </trkpt>
      <trkpt lat="47.581011280" lon="10.931191631">
        <ele>1444.5</ele>
        <time>2024-05-19T10:04:12Z</time>
      </trkpt>
      <trkpt lat="47.580943890" lon="10.931179058">
        <ele>1441.6</ele>
        <time>2024-05-19T10:04:28Z</time>
      </trkpt>
      <trkpt lat="47.580810953" lon="10.931063974">
        <ele>1437.8</ele>
        <time>2024-05-19T10:04:46Z</time>
      </trkpt>
      <trkpt lat="47.580596712" lon="10.931107309">
        <ele>1431.5</ele>
        <time>2024-05-19T10:05:15Z</time>
      </trkpt>
      <trkpt lat="47.580504762" lon="10.931032542">
        <ele>1428.7</ele>
        <time>2024-05-19T10:05:34Z</time>
      </trkpt>
      <trkpt lat="47.580357576" lon="10.931091886">
        <ele>1425.8</ele>
        <time>2024-05-19T10:05:52Z</time>
      </trkpt>
      <trkpt lat="47.580149788" lon="10.931422552">
        <ele>1421.0</ele>
        <time>2024-05-19T10:06:29Z</time>
      </trkpt>
      <trkpt lat="47.580080051" lon="10.931468485">
        <ele>1417.6</ele>
        <time>2024-05-19T10:06:44Z</time>
      </trkpt>
      <trkpt lat="47.580032106" lon="10.931723630">
        <ele>1412.8</ele>
        <time>2024-05-19T10:08:08Z</time>
      </trkpt>
      <trkpt lat="47.579981983" lon="10.931779789">
        <ele>1410.9</ele>
        <time>2024-05-19T10:09:03Z</time>
      </trkpt>
      <trkpt lat="47.579914341" lon="10.932018757">
        <ele>1404.1</ele>
        <time>2024-05-19T10:09:33Z</time>
      </trkpt>
      <trkpt lat="47.579844603" lon="10.932167619">
        <ele>1401.3</ele>
        <time>2024-05-19T10:09:47Z</time>
      </trkpt>
      <trkpt lat="47.579861451" lon="10.932309860">
        <ele>1398.4</ele>
        <time>2024-05-19T10:10:04Z</time>
      </trkpt>
      <trkpt lat="47.580117015" lon="10.932597611">
        <ele>1391.2</ele>
        <time>2024-05-19T10:10:55Z</time>
      </trkpt>
      <trkpt lat="47.580180466" lon="10.932622924">
        <ele>1390.2</ele>
        <time>2024-05-19T10:11:11Z</time>
      </trkpt>
      <trkpt lat="47.580269314" lon="10.932721077">
        <ele>1386.4</ele>
        <time>2024-05-19T10:11:50Z</time>
      </trkpt>
      <trkpt lat="47.580610374" lon="10.932893828">
        <ele>1383.0</ele>
        <time>2024-05-19T10:13:14Z</time>
      </trkpt>
      <trkpt lat="47.580687823" lon="10.932997428">
        <ele>1380.1</ele>
        <time>2024-05-19T10:13:36Z</time>
      </trkpt>
      <trkpt lat="47.580816066" lon="10.933272606">
        <ele>1374.3</ele>
        <time>2024-05-19T10:14:16Z</time>
      </trkpt>
      <trkpt lat="47.580831908" lon="10.933401855">
        <ele>1371.5</ele>
        <time>2024-05-19T10:14:35Z</time>
      </trkpt>
      <trkpt lat="47.580886809" lon="10.933537641">
        <ele>1368.1</ele>
        <time>2024-05-19T10:14:52Z</time>
      </trkpt>
      <trkpt lat="47.581001474" lon="10.933681559">
        <ele>1365.2</ele>
        <time>2024-05-19T10:15:12Z</time>
      </trkpt>
      <trkpt lat="47.581050927" lon="10.933773341">
        <ele>1362.8</ele>
        <time>2024-05-19T10:15:28Z</time>
      </trkpt>
      <trkpt lat="47.581073809" lon="10.934116161">
        <ele>1359.0</ele>
        <time>2024-05-19T10:16:20Z</time>
      </trkpt>
      <trkpt lat="47.581056207" lon="10.934216157">
        <ele>1358.0</ele>
        <time>2024-05-19T10:17:43Z</time>
      </trkpt>
      <trkpt lat="47.581065511" lon="10.934423525">
        <ele>1355.6</ele>
        <time>2024-05-19T10:17:59Z</time>
      </trkpt>
      <trkpt lat="47.580903657" lon="10.934707504">
        <ele>1347.9</ele>
        <time>2024-05-19T10:18:48Z</time>
      </trkpt>
      <trkpt lat="47.580833500" lon="10.934744636">
        <ele>1347.4</ele>
        <time>2024-05-19T10:19:03Z</time>
      </trkpt>
      <trkpt lat="47.580712801" lon="10.934864664">
        <ele>1340.7</ele>
        <time>2024-05-19T10:19:41Z</time>
      </trkpt>
      <trkpt lat="47.580656726" lon="10.934797609">
        <ele>1335.9</ele>
        <time>2024-05-19T10:20:13Z</time>
      </trkpt>
      <trkpt lat="47.580595790" lon="10.934870532">
        <ele>1333.0</ele>
        <time>2024-05-19T10:20:28Z</time>
      </trkpt>
      <trkpt lat="47.580508534" lon="10.934776822">
        <ele>1329.6</ele>
        <time>2024-05-19T10:20:41Z</time>
      </trkpt>
      <trkpt lat="47.580442317" lon="10.934802052">
        <ele>1326.8</ele>
        <time>2024-05-19T10:20:53Z</time>
      </trkpt>
      <trkpt lat="47.580150291" lon="10.935209412">
        <ele>1317.1</ele>
        <time>2024-05-19T10:21:35Z</time>
      </trkpt>
      <trkpt lat="47.580119111" lon="10.935350563">
        <ele>1313.8</ele>
        <time>2024-05-19T10:21:47Z</time>
      </trkpt>
      <trkpt lat="47.580074687" lon="10.935433544">
        <ele>1311.9</ele>
        <time>2024-05-19T10:21:58Z</time>
      </trkpt>
      <trkpt lat="47.580044847" lon="10.935749458">
        <ele>1305.6</ele>
        <time>2024-05-19T10:22:22Z</time>
      </trkpt>
      <trkpt lat="47.580049541" lon="10.935918689">
        <ele>1305.6</ele>
        <time>2024-05-19T10:22:36Z</time>
      </trkpt>
      <trkpt lat="47.580019450" lon="10.936045591">
        <ele>1304.2</ele>
        <time>2024-05-19T10:22:51Z</time>
      </trkpt>
      <trkpt lat="47.579986928" lon="10.935995718">
        <ele>1300.8</ele>
        <time>2024-05-19T10:23:07Z</time>
      </trkpt>
      <trkpt lat="47.579946863" lon="10.936005525">
        <ele>1298.4</ele>
        <time>2024-05-19T10:23:22Z</time>
      </trkpt>
      <trkpt lat="47.579900175" lon="10.936052464">
        <ele>1295.5</ele>
        <time>2024-05-19T10:23:35Z</time>
      </trkpt>
      <trkpt lat="47.579821888" lon="10.936189759">
        <ele>1290.2</ele>
        <time>2024-05-19T10:23:58Z</time>
      </trkpt>
      <trkpt lat="47.579751732" lon="10.936791999">
        <ele>1280.6</ele>
        <time>2024-05-19T10:24:43Z</time>
      </trkpt>
      <trkpt lat="47.579679312" lon="10.936908256">
        <ele>1278.7</ele>
        <time>2024-05-19T10:25:00Z</time>
      </trkpt>
      <trkpt lat="47.579674618" lon="10.936978077">
        <ele>1278.2</ele>
        <time>2024-05-19T10:25:20Z</time>
      </trkpt>
      <trkpt lat="47.579572443" lon="10.937147141">
        <ele>1275.3</ele>
        <time>2024-05-19T10:25:38Z</time>
      </trkpt>
      <trkpt lat="47.579619968" lon="10.937447548">
        <ele>1271.0</ele>
        <time>2024-05-19T10:26:09Z</time>
      </trkpt>
      <trkpt lat="47.579598427" lon="10.937756589">
        <ele>1265.2</ele>
        <time>2024-05-19T10:26:44Z</time>
      </trkpt>
      <trkpt lat="47.579481751" lon="10.937975189">
        <ele>1259.0</ele>
        <time>2024-05-19T10:27:11Z</time>
      </trkpt>
      <trkpt lat="47.579439590" lon="10.938128661">
        <ele>1256.1</ele>
        <time>2024-05-19T10:27:21Z</time>
      </trkpt>
      <trkpt lat="47.579661207" lon="10.938466620">
        <ele>1252.2</ele>
        <time>2024-05-19T10:28:02Z</time>
      </trkpt>
      <trkpt lat="47.579626925" lon="10.938730063">
        <ele>1250.3</ele>
        <time>2024-05-19T10:28:18Z</time>
      </trkpt>
      <trkpt lat="47.579347137" lon="10.939073218">
        <ele>1244.1</ele>
        <time>2024-05-19T10:28:49Z</time>
      </trkpt>
      <trkpt lat="47.579219649" lon="10.939271953">
        <ele>1240.2</ele>
        <time>2024-05-19T10:29:03Z</time>
      </trkpt>
      <trkpt lat="47.579048490" lon="10.939415451">
        <ele>1237.3</ele>
        <time>2024-05-19T10:29:19Z</time>
      </trkpt>
      <trkpt lat="47.578940783" lon="10.939545874">
        <ele>1235.0</ele>
        <time>2024-05-19T10:29:30Z</time>
      </trkpt>
      <trkpt lat="47.578769205" lon="10.939872265">
        <ele>1229.7</ele>
        <time>2024-05-19T10:29:51Z</time>
      </trkpt>
      <trkpt lat="47.578732241" lon="10.940096313">
        <ele>1226.8</ele>
        <time>2024-05-19T10:30:03Z</time>
      </trkpt>
      <trkpt lat="47.578852018" lon="10.940545918">
        <ele>1220.0</ele>
        <time>2024-05-19T10:30:29Z</time>
      </trkpt>
      <trkpt lat="47.578804158" lon="10.940716239">
        <ele>1217.2</ele>
        <time>2024-05-19T10:30:40Z</time>
      </trkpt>
      <trkpt lat="47.578707347" lon="10.940932743">
        <ele>1213.8</ele>
        <time>2024-05-19T10:30:57Z</time>
      </trkpt>
      <trkpt lat="47.578736348" lon="10.941218818">
        <ele>1210.4</ele>
        <time>2024-05-19T10:31:15Z</time>
      </trkpt>
      <trkpt lat="47.578722937" lon="10.941445716">
        <ele>1207.5</ele>
        <time>2024-05-19T10:31:29Z</time>
      </trkpt>
      <trkpt lat="47.578592766" lon="10.941822650">
        <ele>1201.8</ele>
        <time>2024-05-19T10:31:55Z</time>
      </trkpt>
      <trkpt lat="47.578514144" lon="10.941998586">
        <ele>1198.4</ele>
        <time>2024-05-19T10:32:07Z</time>
      </trkpt>
      <trkpt lat="47.578395708" lon="10.942170583">
        <ele>1195.5</ele>
        <time>2024-05-19T10:32:20Z</time>
      </trkpt>
      <trkpt lat="47.578250030" lon="10.942322379">
        <ele>1192.2</ele>
        <time>2024-05-19T10:32:33Z</time>
      </trkpt>
      <trkpt lat="47.578036962" lon="10.942706689">
        <ele>1185.9</ele>
        <time>2024-05-19T10:32:58Z</time>
      </trkpt>
      <trkpt lat="47.577910898" lon="10.942869801">
        <ele>1183.0</ele>
        <time>2024-05-19T10:33:09Z</time>
      </trkpt>
      <trkpt lat="47.577720042" lon="10.943178171">
        <ele>1176.8</ele>
        <time>2024-05-19T10:33:30Z</time>
      </trkpt>
      <trkpt lat="47.577662123" lon="10.943563068">
        <ele>1170.5</ele>
        <time>2024-05-19T10:33:49Z</time>
      </trkpt>
      <trkpt lat="47.577578221" lon="10.943961544">
        <ele>1163.8</ele>
        <time>2024-05-19T10:34:11Z</time>
      </trkpt>
      <trkpt lat="47.577525750" lon="10.944436630">
        <ele>1157.6</ele>
        <time>2024-05-19T10:34:36Z</time>
      </trkpt>
      <trkpt lat="47.577492725" lon="10.946074538">
        <ele>1142.2</ele>
        <time>2024-05-19T10:35:57Z</time>
      </trkpt>
      <trkpt lat="47.577539329" lon="10.946481312">
        <ele>1139.8</ele>
        <time>2024-05-19T10:36:16Z</time>
      </trkpt>
      <trkpt lat="47.577860355" lon="10.947504994">
        <ele>1133.5</ele>
        <time>2024-05-19T10:37:11Z</time>
      </trkpt>
      <trkpt lat="47.577794893" lon="10.948034646">
        <ele>1129.2</ele>
        <time>2024-05-19T10:37:45Z</time>
      </trkpt>
      <trkpt lat="47.577699171" lon="10.948535716">
        <ele>1124.4</ele>
        <time>2024-05-19T10:38:14Z</time>
      </trkpt>
      <trkpt lat="47.577688359" lon="10.949089341">
        <ele>1122.0</ele>
        <time>2024-05-19T10:38:40Z</time>
      </trkpt>
      <trkpt lat="47.577721635" lon="10.949510364">
        <ele>1119.6</ele>
        <time>2024-05-19T10:39:01Z</time>
      </trkpt>
      <trkpt lat="47.577660363" lon="10.949943122">
        <ele>1113.8</ele>
        <time>2024-05-19T10:39:31Z</time>
      </trkpt>
      <trkpt lat="47.577570090" lon="10.950382752">
        <ele>1108.1</ele>
        <time>2024-05-19T10:40:00Z</time>
      </trkpt>
      <trkpt lat="47.577230036" lon="10.950401109">
        <ele>1100.4</ele>
        <time>2024-05-19T10:40:31Z</time>
      </trkpt>
      <trkpt lat="47.577027278" lon="10.950246463">
        <ele>1096.5</ele>
        <time>2024-05-19T10:40:51Z</time>
      </trkpt>
      <trkpt lat="47.576858383" lon="10.950156441">
        <ele>1093.6</ele>
        <time>2024-05-19T10:41:07Z</time>
      </trkpt>
      <trkpt lat="47.576744221" lon="10.949982684">
        <ele>1090.8</ele>
        <time>2024-05-19T10:41:23Z</time>
      </trkpt>
      <trkpt lat="47.576714298" lon="10.949692838">
        <ele>1087.4</ele>
        <time>2024-05-19T10:41:39Z</time>
      </trkpt>
      <trkpt lat="47.576613799" lon="10.949479435">
        <ele>1084.5</ele>
        <time>2024-05-19T10:41:56Z</time>
      </trkpt>
      <trkpt lat="47.576382374" lon="10.949535090">
        <ele>1078.3</ele>
        <time>2024-05-19T10:42:30Z</time>
      </trkpt>
      <trkpt lat="47.576275673" lon="10.949642714">
        <ele>1075.4</ele>
        <time>2024-05-19T10:42:48Z</time>
      </trkpt>
      <trkpt lat="47.576175593" lon="10.949826278">
        <ele>1072.0</ele>
        <time>2024-05-19T10:43:06Z</time>
      </trkpt>
      <trkpt lat="47.576009174" lon="10.949952325">
        <ele>1055.2</ele>
        <time>2024-05-19T10:43:25Z</time>
      </trkpt>
      <trkpt lat="47.575836230" lon="10.950597489">
        <ele>1048.6</ele>
        <time>2024-05-19T10:44:17Z</time>
      </trkpt>
      <trkpt lat="47.575742913" lon="10.950793487">
        <ele>1045.9</ele>
        <time>2024-05-19T10:44:36Z</time>
      </trkpt>
      <trkpt lat="47.575449301" lon="10.951186242">
        <ele>1051.3</ele>
        <time>2024-05-19T10:45:16Z</time>
      </trkpt>
      <trkpt lat="47.575343857" lon="10.951539623">
        <ele>1048.5</ele>
        <time>2024-05-19T10:46:01Z</time>
      </trkpt>
      <trkpt lat="47.575203544" lon="10.952126104">
        <ele>1046.5</ele>
        <time>2024-05-19T10:46:46Z</time>
      </trkpt>
      <trkpt lat="47.575099692" lon="10.952283600">
        <ele>1043.2</ele>
        <time>2024-05-19T10:47:06Z</time>
      </trkpt>
      <trkpt lat="47.574961558" lon="10.952395583">
        <ele>1040.3</ele>
        <time>2024-05-19T10:47:21Z</time>
      </trkpt>
      <trkpt lat="47.574854353" lon="10.952559449">
        <ele>1037.4</ele>
        <time>2024-05-19T10:47:36Z</time>
      </trkpt>
      <trkpt lat="47.574632401" lon="10.952708144">
        <ele>1031.2</ele>
        <time>2024-05-19T10:48:01Z</time>
      </trkpt>
      <trkpt lat="47.574304920" lon="10.953100333">
        <ele>1023.0</ele>
        <time>2024-05-19T10:49:03Z</time>
      </trkpt>
      <trkpt lat="47.574180197" lon="10.953077869">
        <ele>1020.1</ele>
        <time>2024-05-19T10:49:20Z</time>
      </trkpt>
      <trkpt lat="47.573986407" lon="10.953101758">
        <ele>1017.2</ele>
        <time>2024-05-19T10:49:36Z</time>
      </trkpt>
      <trkpt lat="47.573798317" lon="10.953206196">
        <ele>1013.9</ele>
        <time>2024-05-19T10:49:51Z</time>
      </trkpt>
      <trkpt lat="47.573606120" lon="10.953365536">
        <ele>1010.5</ele>
        <time>2024-05-19T10:50:07Z</time>
      </trkpt>
      <trkpt lat="47.573445020" lon="10.953575335">
        <ele>1007.6</ele>
        <time>2024-05-19T10:50:26Z</time>
      </trkpt>
      <trkpt lat="47.573361704" lon="10.953861745">
        <ele>1004.7</ele>
        <time>2024-05-19T10:50:41Z</time>
      </trkpt>
      <trkpt lat="47.573257768" lon="10.954108508">
        <ele>1001.4</ele>
        <time>2024-05-19T10:51:00Z</time>
      </trkpt>
      <trkpt lat="47.573114522" lon="10.954247061">
        <ele>998.5</ele>
        <time>2024-05-19T10:51:18Z</time>
      </trkpt>
      <trkpt lat="47.572920565" lon="10.954285367">
        <ele>995.6</ele>
        <time>2024-05-19T10:51:41Z</time>
      </trkpt>
      <trkpt lat="47.572566513" lon="10.954218060">
        <ele>991.3</ele>
        <time>2024-05-19T10:52:27Z</time>
      </trkpt>
      <trkpt lat="47.572455704" lon="10.954016894">
        <ele>988.4</ele>
        <time>2024-05-19T10:52:47Z</time>
      </trkpt>
      <trkpt lat="47.572321007" lon="10.953825619">
        <ele>985.0</ele>
        <time>2024-05-19T10:53:04Z</time>
      </trkpt>
      <trkpt lat="47.572141718" lon="10.953744901">
        <ele>982.1</ele>
        <time>2024-05-19T10:53:23Z</time>
      </trkpt>
      <trkpt lat="47.571905655" lon="10.953669274">
        <ele>969.9</ele>
        <time>2024-05-19T10:53:51Z</time>
      </trkpt>
      <trkpt lat="47.571842480" lon="10.953680220">
        <ele>968.8</ele>
        <time>2024-05-19T10:57:08Z</time>
      </trkpt>
      <trkpt lat="47.571752328" lon="10.953690163">
        <ele>967.3</ele>
        <time>2024-05-19T10:59:06Z</time>
      </trkpt>
      <trkpt lat="47.571598547" lon="10.953737628">
        <ele>963.9</ele>
        <time>2024-05-19T10:59:25Z</time>
      </trkpt>
      <trkpt lat="47.571403105" lon="10.953739453">
        <ele>977.8</ele>
        <time>2024-05-19T10:59:49Z</time>
      </trkpt>
      <trkpt lat="47.571134381" lon="10.953664519">
        <ele>976.4</ele>
        <time>2024-05-19T11:00:11Z</time>
      </trkpt>
      <trkpt lat="47.570932712" lon="10.953629734">
        <ele>974.4</ele>
        <time>2024-05-19T11:00:33Z</time>
      </trkpt>
      <trkpt lat="47.570720315" lon="10.953621017">
        <ele>973.5</ele>
        <time>2024-05-19T11:00:56Z</time>
      </trkpt>
      <trkpt lat="47.570675053" lon="10.953564774">
        <ele>972.0</ele>
        <time>2024-05-19T11:01:19Z</time>
      </trkpt>
      <trkpt lat="47.570610596" lon="10.953546669">
        <ele>971.1</ele>
        <time>2024-05-19T11:03:01Z</time>
      </trkpt>
      <trkpt lat="47.570516216" lon="10.953571983">
        <ele>970.6</ele>
        <time>2024-05-19T11:04:51Z</time>
      </trkpt>
      <trkpt lat="47.570361905" lon="10.953546753">
        <ele>969.6</ele>
        <time>2024-05-19T11:05:07Z</time>
      </trkpt>
      <trkpt lat="47.570043955" lon="10.953613308">
        <ele>943.3</ele>
        <time>2024-05-19T11:05:39Z</time>
      </trkpt>
    </trkseg>
  </trk>
</gpx>
